createdAt,value
2023-03-28T00:00:07.170Z,29.74
2023-03-28T00:02:51.235Z,28.90
2023-03-28T00:06:16.770Z,27.94
2023-03-28T00:09:03.707Z,29.19
2023-03-28T00:12:03.318Z,29.40
2023-03-28T00:15:08.216Z,29.05
2023-03-28T00:18:01.762Z,28.49
2023-03-28T00:22:09.193Z,29.34
2023-03-28T00:25:04.599Z,28.73
2023-03-28T00:27:41.048Z,29.33
2023-03-28T00:30:16.138Z,29.84
2023-03-28T00:32:45.223Z,29.99
2023-03-28T00:35:59.112Z,29.82
2023-03-28T00:42:16.342Z,30.16
2023-03-28T00:45:34.577Z,30.25
2023-03-28T00:48:58.378Z,30.59
2023-03-28T00:52:10.157Z,31.36
2023-03-28T00:55:23.878Z,30.17
2023-03-28T00:57:57.729Z,30.53
2023-03-28T01:00:32.023Z,30.78
2023-03-28T01:03:14.406Z,33.19
2023-03-28T01:05:56.722Z,33.52
2023-03-28T01:08:59.290Z,32.03
2023-03-28T01:11:58.652Z,33.17
2023-03-28T01:14:42.464Z,34.68
2023-03-28T01:17:24.913Z,33.85
2023-03-28T01:25:09.783Z,34.84
2023-03-28T01:28:03.141Z,34.24
2023-03-28T01:31:19.112Z,34.30
2023-03-28T01:35:23.771Z,37.03
2023-03-28T01:42:20.431Z,37.97
2023-03-28T01:45:26.687Z,39.60
2023-03-28T01:48:54.481Z,38.98
2023-03-28T01:52:07.278Z,40.37
2023-03-28T01:55:09.992Z,39.62
2023-03-28T01:58:55.953Z,43.32
2023-03-28T02:02:14.153Z,41.70
2023-03-28T02:05:33.869Z,41.64
2023-03-28T02:08:15.828Z,42.48
2023-03-28T02:10:53.795Z,42.23
2023-03-28T02:14:20.173Z,40.76
2023-03-28T02:17:18.342Z,40.82
2023-03-28T02:20:18.483Z,43.76
2023-03-28T02:23:15.074Z,44.88
2023-03-28T02:26:04.256Z,46.68
2023-03-28T02:29:18.442Z,46.75
2023-03-28T02:32:55.162Z,45.48
2023-03-28T02:36:24.198Z,46.58
2023-03-28T02:39:15.594Z,46.42
2023-03-28T02:42:36.043Z,46.02
2023-03-28T02:45:15.541Z,47.88
2023-03-28T02:48:14.395Z,47.53
2023-03-28T02:51:41.730Z,47.05
2023-03-28T02:55:11.681Z,49.97
2023-03-28T02:58:15.907Z,50.39
2023-03-28T03:01:03.858Z,52.75
2023-03-28T03:03:58.335Z,52.70
2023-03-28T03:06:41.250Z,52.07
2023-03-28T03:09:14.633Z,52.50
2023-03-28T03:11:47.097Z,52.01
2023-03-28T03:14:21.761Z,51.29
2023-03-28T03:17:27.974Z,52.17
2023-03-28T03:20:21.921Z,53.42
2023-03-28T03:22:56.793Z,54.11
2023-03-28T03:25:27.444Z,55.31
2023-03-28T03:28:18.783Z,58.77
2023-03-28T03:30:51.064Z,58.14
2023-03-28T03:33:43.007Z,57.54
2023-03-28T03:36:18.101Z,59.98
2023-03-28T03:38:49.736Z,63.57
2023-03-28T03:41:25.593Z,61.68
2023-03-28T03:43:54.733Z,60.93
2023-03-28T03:46:41.379Z,67.01
2023-03-28T03:49:13.139Z,64.80
2023-03-28T03:51:46.229Z,65.65
2023-03-28T03:54:31.406Z,64.75
2023-03-28T03:57:07.544Z,64.07
2023-03-28T03:59:46.279Z,65.45
2023-03-28T04:02:32.167Z,67.91
2023-03-28T04:05:06.353Z,66.95
2023-03-28T04:08:18.522Z,67.08
2023-03-28T04:10:57.165Z,67.40
2023-03-28T04:13:26.662Z,65.87
2023-03-28T04:16:01.110Z,67.77
2023-03-28T04:18:57.136Z,65.39
2023-03-28T04:21:51.462Z,61.45
2023-03-28T04:24:29.891Z,62.75
2023-03-28T04:27:16.566Z,63.18
2023-03-28T04:30:11.380Z,61.65
2023-03-28T04:33:03.092Z,63.08
2023-03-28T04:35:38.483Z,63.25
2023-03-28T04:38:20.270Z,60.65
2023-03-28T04:40:54.553Z,60.81
2023-03-28T04:43:47.126Z,59.04
2023-03-28T04:46:16.238Z,56.12
2023-03-28T04:48:45.246Z,55.96
2023-03-28T04:51:18.071Z,58.64
2023-03-28T04:53:47.237Z,56.56
2023-03-28T04:56:37.301Z,55.06
2023-03-28T04:59:09.761Z,55.63
2023-03-28T05:01:39.226Z,55.35
2023-03-28T05:04:44.175Z,54.81
2023-03-28T05:07:16.286Z,53.52
2023-03-28T05:09:48.145Z,52.93
2023-03-28T05:12:17.686Z,53.43
2023-03-28T05:15:01.112Z,52.42
2023-03-28T05:17:36.923Z,53.72
2023-03-28T05:20:20.580Z,55.75
2023-03-28T05:22:58.223Z,56.33
2023-03-28T05:25:27.587Z,54.48
2023-03-28T05:28:01.944Z,56.31
2023-03-28T05:30:32.490Z,57.43
2023-03-28T05:33:03.859Z,57.64
2023-03-28T05:35:33.519Z,55.64
2023-03-28T05:38:03.322Z,55.23
2023-03-28T05:40:35.983Z,57.00
2023-03-28T05:43:08.200Z,56.06
2023-03-28T05:45:42.122Z,54.95
2023-03-28T05:48:14.566Z,54.55
2023-03-28T05:50:46.186Z,54.30
2023-03-28T05:53:15.486Z,55.53
2023-03-28T05:55:44.808Z,56.70
2023-03-28T05:58:15.047Z,57.47
2023-03-28T06:00:45.584Z,58.71
2023-03-28T06:03:18.861Z,58.65
2023-03-28T06:06:00.970Z,56.68
2023-03-28T06:08:46.992Z,56.58
2023-03-28T06:11:16.775Z,58.43
2023-03-28T06:14:04.773Z,58.90
2023-03-28T06:16:36.111Z,58.29
2023-03-28T06:19:17.397Z,59.77
2023-03-28T06:22:05.524Z,59.18
2023-03-28T06:27:59.373Z,58.76
2023-03-28T06:30:33.639Z,58.26
2023-03-28T06:33:04.463Z,63.63
2023-03-28T06:35:37.075Z,60.01
2023-03-28T06:38:06.376Z,59.30
2023-03-28T06:40:35.778Z,59.50
2023-03-28T06:43:05.137Z,58.91
2023-03-28T06:45:45.744Z,60.38
2023-03-28T06:48:16.749Z,61.24
2023-03-28T06:51:04.753Z,60.74
2023-03-28T06:53:34.315Z,59.94
2023-03-28T06:56:03.880Z,61.58
2023-03-28T06:58:32.861Z,59.68
2023-03-28T07:01:11.154Z,59.16
2023-03-28T07:03:40.365Z,60.67
2023-03-28T07:06:11.376Z,61.32
2023-03-28T07:08:43.489Z,61.55
2023-03-28T07:11:12.842Z,60.63
2023-03-28T07:13:43.609Z,62.17
2023-03-28T07:16:15.308Z,61.13
2023-03-28T07:18:46.760Z,60.26
2023-03-28T07:21:21.957Z,60.45
2023-03-28T07:23:51.126Z,63.22
2023-03-28T07:26:24.246Z,61.93
2023-03-28T07:28:55.821Z,61.28
2023-03-28T07:31:26.561Z,60.58
2023-03-28T07:33:58.953Z,62.29
2023-03-28T07:36:29.428Z,63.09
2023-03-28T07:39:07.295Z,67.72
2023-03-28T07:41:38.261Z,70.10
2023-03-28T07:44:10.731Z,69.32
2023-03-28T07:46:43.615Z,70.02
2023-03-28T07:49:12.610Z,67.18
2023-03-28T07:51:44.740Z,67.64
2023-03-28T07:54:18.561Z,66.87
2023-03-28T07:56:50.097Z,66.44
2023-03-28T07:59:29.949Z,65.24
2023-03-28T08:02:00.408Z,63.48
2023-03-28T08:04:29.598Z,62.94
2023-03-28T08:07:08.642Z,66.96
2023-03-28T08:09:40.024Z,71.91
2023-03-28T08:12:22.824Z,80.29
2023-03-28T08:14:52.597Z,80.50
2023-03-28T08:17:24.686Z,75.47
2023-03-28T08:19:55.257Z,68.85
2023-03-28T08:22:31.951Z,69.22
2023-03-28T08:25:30.862Z,72.24
2023-03-28T08:28:00.374Z,76.33
2023-03-28T08:30:30.708Z,79.80
2023-03-28T08:33:05.295Z,76.51
2023-03-28T08:35:35.536Z,78.00
2023-03-28T08:38:11.589Z,77.31
2023-03-28T08:40:47.662Z,79.49
2023-03-28T08:44:03.416Z,80.64
2023-03-28T08:46:34.733Z,82.03
2023-03-28T08:49:12.858Z,83.96
2023-03-28T08:51:52.851Z,83.90
2023-03-28T08:54:49.681Z,82.29
2023-03-28T08:57:24.675Z,82.44
2023-03-28T09:00:24.910Z,80.39
2023-03-28T09:02:54.368Z,82.53
2023-03-28T09:05:57.872Z,83.24
2023-03-28T09:08:51.809Z,80.14
2023-03-28T09:11:33.044Z,81.60
2023-03-28T09:14:20.051Z,80.82
2023-03-28T09:17:06.851Z,82.72
2023-03-28T09:19:47.292Z,82.13
2023-03-28T09:22:44.698Z,82.77
2023-03-28T09:25:20.670Z,83.43
2023-03-28T09:28:13.128Z,87.22
2023-03-28T09:30:49.222Z,90.48
2023-03-28T09:33:34.117Z,90.93
2023-03-28T09:36:05.461Z,88.67
2023-03-28T09:38:45.466Z,90.24
2023-03-28T09:41:21.511Z,85.87
2023-03-28T09:44:19.570Z,85.21
2023-03-28T09:47:13.004Z,84.33
2023-03-28T09:49:49.541Z,86.14
2023-03-28T09:52:24.107Z,81.45
2023-03-28T09:54:54.860Z,81.81
2023-03-28T09:57:30.273Z,80.14
2023-03-28T10:00:22.300Z,77.86
2023-03-28T10:03:33.922Z,77.09
2023-03-28T10:06:29.880Z,75.19
2023-03-28T10:09:20.942Z,75.69
2023-03-28T10:12:33.672Z,76.85
2023-03-28T10:15:04.094Z,73.85
2023-03-28T10:18:05.165Z,71.12
2023-03-28T10:20:44.751Z,72.75
2023-03-28T10:23:16.982Z,72.97
2023-03-28T10:25:54.938Z,74.49
2023-03-28T10:28:40.680Z,75.94
2023-03-28T10:31:34.309Z,76.41
2023-03-28T10:35:28.991Z,82.09
2023-03-28T10:38:20.049Z,83.02
2023-03-28T10:41:29.845Z,85.21
2023-03-28T10:44:40.104Z,89.28
2023-03-28T10:47:19.453Z,91.29
2023-03-28T10:50:03.035Z,92.50
2023-03-28T10:52:42.445Z,98.29
2023-03-28T10:55:28.707Z,96.95
2023-03-28T10:58:31.354Z,100.00
2023-03-28T11:01:20.149Z,99.74
2023-03-28T11:04:50.413Z,98.41
2023-03-28T11:07:50.561Z,100.00
2023-03-28T11:11:19.593Z,100.00
2023-03-28T11:14:21.017Z,100.00
2023-03-28T11:17:22.874Z,100.00
2023-03-28T11:20:32.529Z,97.36
2023-03-28T11:23:14.033Z,92.31
2023-03-28T11:26:41.063Z,100.00
2023-03-28T11:30:19.378Z,100.00
2023-03-28T11:33:09.200Z,94.78
2023-03-28T11:35:47.952Z,100.00
2023-03-28T11:38:23.393Z,100.00
2023-03-28T11:41:27.877Z,100.00
2023-03-28T11:44:43.135Z,95.24
2023-03-28T11:47:29.406Z,97.47
2023-03-28T11:50:37.596Z,87.11
2023-03-28T11:53:32.542Z,95.13
2023-03-28T11:56:24.972Z,100.00
2023-03-28T11:59:32.330Z,100.00
2023-03-28T12:02:12.643Z,100.00
2023-03-28T12:04:51.206Z,100.00
2023-03-28T12:07:28.889Z,100.00
2023-03-28T12:10:21.341Z,100.00
2023-03-28T12:12:56.434Z,100.00
2023-03-28T12:15:37.957Z,100.00
2023-03-28T12:18:23.275Z,100.00
2023-03-28T12:21:36.692Z,100.00
2023-03-28T12:24:27.401Z,100.00
2023-03-28T12:27:38.003Z,100.00
2023-03-28T12:30:23.181Z,100.00
2023-03-28T12:33:15.098Z,100.00
2023-03-28T12:36:15.286Z,100.00
2023-03-28T12:38:59.630Z,100.00
2023-03-28T12:41:37.247Z,100.00
2023-03-28T12:44:47.346Z,100.00
2023-03-28T12:47:26.743Z,100.00
2023-03-28T12:50:02.083Z,100.00
2023-03-28T12:52:40.111Z,99.67
2023-03-28T12:55:27.996Z,100.00
2023-03-28T12:58:24.604Z,100.00
2023-03-28T13:01:05.998Z,100.00
2023-03-28T13:03:54.905Z,100.00
2023-03-28T13:07:15.173Z,100.00
2023-03-28T13:09:58.718Z,100.00
2023-03-28T13:12:35.083Z,100.00
2023-03-28T13:15:31.100Z,100.00
2023-03-28T13:18:22.561Z,100.00
2023-03-28T13:20:53.368Z,100.00
2023-03-28T13:23:47.538Z,100.00
2023-03-28T13:26:25.797Z,100.00
2023-03-28T13:29:01.307Z,100.00
2023-03-28T13:31:30.372Z,100.00
2023-03-28T13:34:03.831Z,100.00
2023-03-28T13:36:37.229Z,100.00
2023-03-28T13:39:09.134Z,100.00
2023-03-28T13:41:57.350Z,100.00
2023-03-28T13:44:46.316Z,100.00
2023-03-28T13:47:21.004Z,100.00
2023-03-28T13:50:02.745Z,100.00
2023-03-28T13:52:33.141Z,100.00
2023-03-28T13:55:03.768Z,100.00
2023-03-28T13:57:32.761Z,100.00
2023-03-28T14:00:07.595Z,100.00
2023-03-28T14:02:51.063Z,100.00
2023-03-28T14:05:26.628Z,100.00
2023-03-28T14:08:02.278Z,100.00
2023-03-28T14:10:34.382Z,100.00
2023-03-28T14:13:11.797Z,100.00
2023-03-28T14:15:42.384Z,100.00
2023-03-28T14:18:54.949Z,100.00
2023-03-28T14:21:30.653Z,100.00
2023-03-28T14:24:05.989Z,100.00
2023-03-28T14:26:38.408Z,100.00
2023-03-28T14:29:13.316Z,100.00
2023-03-28T14:31:49.428Z,100.00
2023-03-28T14:34:27.915Z,100.00
2023-03-28T14:37:07.121Z,100.00
2023-03-28T14:39:39.861Z,100.00
2023-03-28T14:42:14.616Z,100.00
2023-03-28T14:44:52.354Z,100.00
2023-03-28T14:47:28.908Z,100.00
2023-03-28T14:49:58.745Z,100.00
2023-03-28T14:52:32.579Z,100.00
2023-03-28T14:55:03.099Z,100.00
2023-03-28T14:57:32.868Z,100.00
2023-03-28T15:00:02.976Z,100.00
2023-03-28T15:02:36.140Z,100.00
2023-03-28T15:05:10.439Z,100.00
2023-03-28T15:07:43.402Z,100.00
2023-03-28T15:10:23.267Z,100.00
2023-03-28T15:15:58.721Z,100.00
2023-03-28T15:18:31.107Z,100.00
2023-03-28T15:21:03.721Z,100.00
2023-03-28T15:23:42.798Z,100.00
2023-03-28T15:26:26.945Z,100.00
2023-03-28T15:28:58.609Z,100.00
2023-03-28T15:31:28.944Z,100.00
2023-03-28T15:34:00.054Z,100.00
2023-03-28T15:36:33.955Z,100.00
2023-03-28T15:39:25.357Z,100.00
2023-03-28T15:42:20.042Z,100.00
2023-03-28T15:45:01.352Z,100.00
2023-03-28T15:47:34.828Z,100.00
2023-03-28T15:50:09.686Z,100.00
2023-03-28T15:52:44.733Z,100.00
2023-03-28T15:55:22.055Z,100.00
2023-03-28T15:57:51.276Z,100.00
2023-03-28T16:00:41.479Z,100.00
2023-03-28T16:03:37.565Z,100.00
2023-03-28T16:06:23.209Z,100.00
2023-03-28T16:10:09.115Z,100.00
2023-03-28T16:12:59.820Z,100.00
2023-03-28T16:16:01.851Z,100.00
2023-03-28T16:18:52.467Z,100.00
2023-03-28T16:21:35.991Z,100.00
2023-03-28T16:24:21.213Z,100.00
2023-03-28T16:27:22.167Z,100.00
2023-03-28T16:29:40.520Z,95.35
2023-03-28T16:32:14.883Z,93.96
2023-03-28T16:34:46.544Z,86.64
2023-03-28T16:37:22.687Z,89.95
2023-03-28T16:39:52.209Z,81.81
2023-03-28T16:42:25.413Z,83.41
2023-03-28T16:45:21.338Z,88.58
2023-03-28T16:48:02.175Z,84.71
2023-03-28T16:51:45.508Z,81.64
2023-03-28T16:54:48.183Z,79.11
2023-03-28T16:58:00.697Z,69.28
2023-03-28T17:00:59.533Z,70.25
2023-03-28T17:03:34.228Z,73.14
2023-03-28T17:09:26.238Z,73.47
2023-03-28T17:12:07.913Z,71.08
2023-03-28T17:15:07.598Z,68.15
2023-03-28T17:18:11.000Z,70.59
2023-03-28T17:21:16.039Z,62.07
2023-03-28T17:23:49.314Z,100.00
2023-03-28T17:29:09.082Z,82.98
2023-03-28T17:31:39.967Z,100.00
2023-03-28T17:34:46.958Z,100.00
2023-03-28T17:37:16.651Z,100.00
2023-03-28T17:39:48.796Z,100.00
2023-03-28T17:42:26.618Z,100.00
2023-03-28T17:45:02.503Z,94.29
2023-03-28T17:47:55.761Z,68.83
2023-03-28T17:51:40.443Z,100.00
2023-03-28T17:54:27.381Z,72.16
2023-03-28T17:57:00.959Z,60.55
2023-03-28T17:59:58.790Z,59.11
2023-03-28T18:02:45.727Z,52.14
2023-03-28T18:05:48.935Z,52.12
2023-03-28T18:08:24.606Z,50.33
2023-03-28T18:11:17.049Z,60.67
2023-03-28T18:13:55.735Z,63.26
2023-03-28T18:17:24.805Z,75.35
2023-03-28T18:20:03.042Z,69.93
2023-03-28T18:22:48.219Z,63.41
2023-03-28T18:25:24.812Z,63.86
2023-03-28T18:27:53.916Z,58.16
2023-03-28T18:30:34.066Z,67.61
2023-03-28T18:33:12.736Z,61.08
2023-03-28T18:38:04.191Z,60.73
2023-03-28T18:40:13.166Z,65.72
2023-03-28T18:46:20.043Z,56.10
2023-03-28T18:49:25.934Z,49.52
2023-03-28T18:52:06.373Z,50.52
2023-03-28T19:01:00.525Z,52.29
2023-03-28T19:07:57.028Z,50.05
2023-03-28T19:10:24.614Z,46.57
2023-03-28T19:13:57.496Z,47.12
2023-03-28T19:19:15.064Z,46.84
2023-03-28T19:21:45.284Z,45.69
2023-03-28T19:24:39.941Z,46.53
2023-03-28T19:27:20.207Z,49.26
2023-03-28T19:29:53.646Z,48.69
2023-03-28T19:32:46.103Z,43.45
2023-03-28T19:39:30.427Z,45.67
2023-03-28T19:42:44.953Z,48.51
2023-03-28T19:48:41.113Z,43.68
2023-03-28T19:51:34.828Z,43.15
2023-03-28T19:54:10.140Z,41.49
2023-03-28T19:56:45.306Z,42.27
2023-03-28T19:59:30.077Z,41.09
2023-03-28T20:02:10.462Z,37.59
2023-03-28T20:05:02.591Z,40.51
2023-03-28T20:07:37.963Z,36.21
2023-03-28T20:10:47.986Z,33.41
2023-03-28T20:13:20.521Z,34.57
2023-03-28T20:15:57.327Z,35.07
2023-03-28T20:18:29.601Z,34.20
2023-03-28T20:21:01.487Z,32.32
2023-03-28T20:24:03.549Z,32.04
2023-03-28T20:26:45.622Z,32.04
2023-03-28T20:29:14.783Z,32.62
2023-03-28T20:32:32.558Z,31.11
2023-03-28T20:35:14.357Z,30.42
2023-03-28T20:37:54.371Z,32.14
2023-03-28T20:40:29.058Z,31.08
2023-03-28T20:43:43.435Z,31.34
2023-03-28T20:48:08.080Z,31.69
2023-03-28T20:57:21.801Z,32.95
2023-03-28T20:59:54.071Z,30.21
2023-03-28T21:02:27.586Z,30.54
2023-03-28T21:05:09.683Z,29.69
2023-03-28T21:07:58.037Z,30.84
2023-03-28T21:10:27.549Z,30.46
2023-03-28T21:12:58.621Z,31.54
2023-03-28T21:15:41.156Z,31.01
2023-03-28T21:18:50.352Z,30.97
2023-03-28T21:22:12.468Z,31.30
2023-03-28T21:24:42.384Z,29.51
2023-03-28T21:27:14.229Z,29.48
2023-03-28T21:30:07.027Z,30.10
2023-03-28T21:33:24.708Z,31.87
2023-03-28T21:36:12.344Z,31.16
2023-03-28T21:38:49.464Z,30.87
2023-03-28T21:41:34.050Z,30.79
2023-03-28T21:44:47.916Z,32.31
2023-03-28T21:47:21.413Z,31.86
2023-03-28T21:49:51.935Z,31.42
2023-03-28T21:52:25.814Z,31.17
2023-03-28T21:54:55.072Z,32.63
2023-03-28T21:57:24.264Z,31.81
2023-03-28T21:59:56.272Z,33.75
2023-03-28T22:02:28.620Z,32.63
2023-03-28T22:05:00.022Z,31.43
2023-03-28T22:07:29.534Z,32.06
2023-03-28T22:10:02.350Z,31.42
2023-03-28T22:12:36.507Z,30.95
2023-03-28T22:15:11.811Z,31.40
2023-03-28T22:17:46.663Z,34.23
2023-03-28T22:20:16.497Z,32.19
2023-03-28T22:22:49.292Z,31.64
2023-03-28T22:25:24.921Z,32.69
2023-03-28T22:28:13.346Z,33.93
2023-03-28T22:30:45.499Z,34.82
2023-03-28T22:33:14.749Z,33.06
2023-03-28T22:36:07.315Z,31.79
2023-03-28T22:38:51.242Z,32.12
2023-03-28T22:41:22.959Z,33.26
2023-03-28T22:43:52.119Z,33.27
2023-03-28T22:46:28.513Z,34.99
2023-03-28T22:49:27.384Z,33.77
2023-03-28T22:51:57.256Z,35.18
2023-03-28T22:54:39.634Z,34.68
2023-03-28T22:57:15.458Z,34.53
2023-03-28T22:59:46.196Z,34.97
2023-03-28T23:02:15.990Z,35.36
2023-03-28T23:04:47.464Z,34.46
2023-03-28T23:07:18.031Z,35.23
2023-03-28T23:09:58.004Z,36.35
2023-03-28T23:12:30.172Z,35.22
2023-03-28T23:15:26.152Z,34.97
2023-03-28T23:18:26.657Z,38.18
2023-03-28T23:21:18.982Z,36.50
2023-03-28T23:23:49.074Z,38.40
2023-03-28T23:26:18.749Z,39.93
2023-03-28T23:28:49.099Z,37.38
2023-03-28T23:31:18.457Z,40.57
2023-03-28T23:33:50.373Z,39.69
2023-03-28T23:36:24.050Z,41.72
2023-03-28T23:38:55.324Z,41.89
2023-03-28T23:41:29.968Z,37.34
2023-03-28T23:44:19.946Z,36.83
2023-03-28T23:46:50.974Z,39.54
2023-03-28T23:49:26.328Z,42.23
2023-03-28T23:52:02.628Z,42.82
2023-03-28T23:54:54.038Z,41.45
2023-03-28T23:57:35.261Z,43.55
